sensor_id;sensor_type;location;lat;lon;timestamp;temperature;humidity
3348;DHT22;1687;49.540;8.574;2023-10-09T00:02:11;17.30;78.80
3348;DHT22;1687;49.540;8.574;2023-10-09T00:04:43;17.30;78.70
3348;DHT22;1687;49.540;8.574;2023-10-09T00:07:11;17.30;78.80
3348;DHT22;1687;49.540;8.574;2023-10-09T00:09:37;17.20;78.60
3348;DHT22;1687;49.540;8.574;2023-10-09T00:12:17;17.20;78.90
3348;DHT22;1687;49.540;8.574;2023-10-09T00:14:48;17.20;78.90
3348;DHT22;1687;49.540;8.574;2023-10-09T00:17:19;17.20;79.00
3348;DHT22;1687;49.540;8.574;2023-10-09T00:19:45;17.30;79.00
3348;DHT22;1687;49.540;8.574;2023-10-09T00:22:13;17.30;79.00
3348;DHT22;1687;49.540;8.574;2023-10-09T00:24:48;17.20;79.10
3348;DHT22;1687;49.540;8.574;2023-10-09T00:27:16;17.30;79.20
3348;DHT22;1687;49.540;8.574;2023-10-09T00:29:45;17.30;79.20
3348;DHT22;1687;49.540;8.574;2023-10-09T00:32:15;17.20;79.00
3348;DHT22;1687;49.540;8.574;2023-10-09T00:34:53;17.20;79.10
3348;DHT22;1687;49.540;8.574;2023-10-09T00:37:23;17.30;79.40
3348;DHT22;1687;49.540;8.574;2023-10-09T00:39:50;17.30;79.50
3348;DHT22;1687;49.540;8.574;2023-10-09T00:42:24;17.30;79.50
3348;DHT22;1687;49.540;8.574;2023-10-09T00:44:58;17.30;79.50
3348;DHT22;1687;49.540;8.574;2023-10-09T00:47:34;17.40;80.50
3348;DHT22;1687;49.540;8.574;2023-10-09T00:50:05;17.40;79.80
3348;DHT22;1687;49.540;8.574;2023-10-09T00:52:45;17.50;79.80
3348;DHT22;1687;49.540;8.574;2023-10-09T00:55:26;17.50;79.80
3348;DHT22;1687;49.540;8.574;2023-10-09T00:58:05;17.50;79.80
3348;DHT22;1687;49.540;8.574;2023-10-09T01:00:39;17.60;79.70
3348;DHT22;1687;49.540;8.574;2023-10-09T01:03:18;17.50;79.70
3348;DHT22;1687;49.540;8.574;2023-10-09T01:08:25;17.50;79.80
3348;DHT22;1687;49.540;8.574;2023-10-09T01:10:57;17.50;79.70
3348;DHT22;1687;49.540;8.574;2023-10-09T01:13:34;17.50;79.70
3348;DHT22;1687;49.540;8.574;2023-10-09T01:16:23;17.40;79.60
3348;DHT22;1687;49.540;8.574;2023-10-09T01:18:53;17.40;79.70
3348;DHT22;1687;49.540;8.574;2023-10-09T01:21:22;17.40;79.90
3348;DHT22;1687;49.540;8.574;2023-10-09T01:23:57;17.30;79.90
3348;DHT22;1687;49.540;8.574;2023-10-09T01:26:32;17.30;79.90
3348;DHT22;1687;49.540;8.574;2023-10-09T01:29:08;17.30;79.90
3348;DHT22;1687;49.540;8.574;2023-10-09T01:31:52;17.30;80.20
3348;DHT22;1687;49.540;8.574;2023-10-09T01:34:25;17.30;79.90
3348;DHT22;1687;49.540;8.574;2023-10-09T01:37:17;17.20;80.10
3348;DHT22;1687;49.540;8.574;2023-10-09T01:39:47;17.20;79.90
3348;DHT22;1687;49.540;8.574;2023-10-09T01:42:18;17.20;80.30
3348;DHT22;1687;49.540;8.574;2023-10-09T01:44:59;17.20;79.90
3348;DHT22;1687;49.540;8.574;2023-10-09T01:47:52;17.10;80.00
3348;DHT22;1687;49.540;8.574;2023-10-09T01:50:19;17.10;80.20
3348;DHT22;1687;49.540;8.574;2023-10-09T01:52:47;17.00;80.10
3348;DHT22;1687;49.540;8.574;2023-10-09T01:55:13;17.00;80.40
3348;DHT22;1687;49.540;8.574;2023-10-09T01:57:53;17.00;80.50
3348;DHT22;1687;49.540;8.574;2023-10-09T02:00:19;17.00;80.60
3348;DHT22;1687;49.540;8.574;2023-10-09T02:02:49;17.00;80.70
3348;DHT22;1687;49.540;8.574;2023-10-09T02:05:16;17.00;80.80
3348;DHT22;1687;49.540;8.574;2023-10-09T02:07:42;17.00;80.50
3348;DHT22;1687;49.540;8.574;2023-10-09T02:10:20;17.00;80.80
3348;DHT22;1687;49.540;8.574;2023-10-09T02:12:56;17.00;81.00
3348;DHT22;1687;49.540;8.574;2023-10-09T02:15:30;17.10;81.30
3348;DHT22;1687;49.540;8.574;2023-10-09T02:18:15;17.10;81.00
3348;DHT22;1687;49.540;8.574;2023-10-09T02:23:33;17.10;81.20
3348;DHT22;1687;49.540;8.574;2023-10-09T02:26:16;17.20;81.60
3348;DHT22;1687;49.540;8.574;2023-10-09T02:28:58;17.20;81.50
3348;DHT22;1687;49.540;8.574;2023-10-09T02:31:25;17.20;81.20
3348;DHT22;1687;49.540;8.574;2023-10-09T02:33:54;17.30;81.60
3348;DHT22;1687;49.540;8.574;2023-10-09T02:36:22;17.30;81.20
3348;DHT22;1687;49.540;8.574;2023-10-09T02:38:47;17.20;81.50
3348;DHT22;1687;49.540;8.574;2023-10-09T02:41:15;17.20;81.50
3348;DHT22;1687;49.540;8.574;2023-10-09T02:43:41;17.20;81.30
3348;DHT22;1687;49.540;8.574;2023-10-09T02:46:13;17.20;81.20
3348;DHT22;1687;49.540;8.574;2023-10-09T02:48:50;17.10;81.40
3348;DHT22;1687;49.540;8.574;2023-10-09T02:51:19;17.10;81.40
3348;DHT22;1687;49.540;8.574;2023-10-09T02:53:52;17.10;81.40
3348;DHT22;1687;49.540;8.574;2023-10-09T02:56:18;17.00;81.50
3348;DHT22;1687;49.540;8.574;2023-10-09T02:58:53;17.00;81.70
3348;DHT22;1687;49.540;8.574;2023-10-09T03:01:19;17.00;82.20
3348;DHT22;1687;49.540;8.574;2023-10-09T03:03:45;17.10;82.00
3348;DHT22;1687;49.540;8.574;2023-10-09T03:06:13;17.10;81.90
3348;DHT22;1687;49.540;8.574;2023-10-09T03:08:44;17.00;81.60
3348;DHT22;1687;49.540;8.574;2023-10-09T03:11:13;17.00;81.60
3348;DHT22;1687;49.540;8.574;2023-10-09T03:13:43;16.90;81.60
3348;DHT22;1687;49.540;8.574;2023-10-09T03:16:10;16.80;82.00
3348;DHT22;1687;49.540;8.574;2023-10-09T03:18:45;16.90;82.10
3348;DHT22;1687;49.540;8.574;2023-10-09T03:21:12;16.80;81.90
3348;DHT22;1687;49.540;8.574;2023-10-09T03:23:40;16.80;82.00
3348;DHT22;1687;49.540;8.574;2023-10-09T03:26:06;16.70;82.20
3348;DHT22;1687;49.540;8.574;2023-10-09T03:28:33;16.70;82.40
3348;DHT22;1687;49.540;8.574;2023-10-09T03:30:59;16.80;82.80
3348;DHT22;1687;49.540;8.574;2023-10-09T03:33:31;16.90;83.00
3348;DHT22;1687;49.540;8.574;2023-10-09T03:35:59;16.90;82.80
3348;DHT22;1687;49.540;8.574;2023-10-09T03:38:26;16.90;82.70
3348;DHT22;1687;49.540;8.574;2023-10-09T03:40:54;16.80;82.20
3348;DHT22;1687;49.540;8.574;2023-10-09T03:43:20;16.70;82.20
3348;DHT22;1687;49.540;8.574;2023-10-09T03:45:47;16.70;82.20
3348;DHT22;1687;49.540;8.574;2023-10-09T03:48:20;16.60;82.20
3348;DHT22;1687;49.540;8.574;2023-10-09T03:50:52;16.50;82.50
3348;DHT22;1687;49.540;8.574;2023-10-09T03:53:36;16.50;82.60
3348;DHT22;1687;49.540;8.574;2023-10-09T03:56:07;16.40;82.40
3348;DHT22;1687;49.540;8.574;2023-10-09T03:58:42;16.40;82.70
3348;DHT22;1687;49.540;8.574;2023-10-09T04:01:14;16.30;82.80
3348;DHT22;1687;49.540;8.574;2023-10-09T04:04:04;16.30;83.10
3348;DHT22;1687;49.540;8.574;2023-10-09T04:06:33;16.30;83.20
3348;DHT22;1687;49.540;8.574;2023-10-09T04:09:04;16.40;83.40
3348;DHT22;1687;49.540;8.574;2023-10-09T04:11:46;16.30;83.30
3348;DHT22;1687;49.540;8.574;2023-10-09T04:14:13;16.30;83.60
3348;DHT22;1687;49.540;8.574;2023-10-09T04:16:52;16.30;83.80
3348;DHT22;1687;49.540;8.574;2023-10-09T04:19:18;16.40;84.20
3348;DHT22;1687;49.540;8.574;2023-10-09T04:21:48;16.40;84.20
3348;DHT22;1687;49.540;8.574;2023-10-09T04:24:14;16.40;84.20
3348;DHT22;1687;49.540;8.574;2023-10-09T04:26:44;16.40;84.10
3348;DHT22;1687;49.540;8.574;2023-10-09T04:29:11;16.40;84.30
3348;DHT22;1687;49.540;8.574;2023-10-09T04:31:57;16.40;84.60
3348;DHT22;1687;49.540;8.574;2023-10-09T04:34:27;16.40;84.30
3348;DHT22;1687;49.540;8.574;2023-10-09T04:36:53;16.40;84.60
3348;DHT22;1687;49.540;8.574;2023-10-09T04:39:47;16.40;84.70
3348;DHT22;1687;49.540;8.574;2023-10-09T04:42:15;16.40;84.60
3348;DHT22;1687;49.540;8.574;2023-10-09T04:44:50;16.40;84.80
3348;DHT22;1687;49.540;8.574;2023-10-09T04:47:36;16.40;84.60
3348;DHT22;1687;49.540;8.574;2023-10-09T04:50:07;16.40;85.00
3348;DHT22;1687;49.540;8.574;2023-10-09T04:52:40;16.30;84.90
3348;DHT22;1687;49.540;8.574;2023-10-09T04:55:07;16.40;85.30
3348;DHT22;1687;49.540;8.574;2023-10-09T04:57:34;16.40;85.40
3348;DHT22;1687;49.540;8.574;2023-10-09T05:00:05;16.40;85.40
3348;DHT22;1687;49.540;8.574;2023-10-09T05:02:54;16.40;85.30
3348;DHT22;1687;49.540;8.574;2023-10-09T05:05:30;16.40;85.40
3348;DHT22;1687;49.540;8.574;2023-10-09T05:08:13;16.40;85.60
3348;DHT22;1687;49.540;8.574;2023-10-09T05:11:01;16.40;85.70
3348;DHT22;1687;49.540;8.574;2023-10-09T05:13:31;16.50;86.00
3348;DHT22;1687;49.540;8.574;2023-10-09T05:16:07;16.50;86.40
3348;DHT22;1687;49.540;8.574;2023-10-09T05:18:56;16.60;86.40
3348;DHT22;1687;49.540;8.574;2023-10-09T05:21:28;16.70;86.70
3348;DHT22;1687;49.540;8.574;2023-10-09T05:24:01;16.80;86.80
3348;DHT22;1687;49.540;8.574;2023-10-09T05:26:37;16.80;86.40
3348;DHT22;1687;49.540;8.574;2023-10-09T05:29:21;16.80;85.90
3348;DHT22;1687;49.540;8.574;2023-10-09T05:32:06;16.80;85.90
3348;DHT22;1687;49.540;8.574;2023-10-09T05:34:38;16.70;85.70
3348;DHT22;1687;49.540;8.574;2023-10-09T05:37:23;16.60;85.80
3348;DHT22;1687;49.540;8.574;2023-10-09T05:39:55;16.60;85.90
3348;DHT22;1687;49.540;8.574;2023-10-09T05:42:27;16.60;86.20
3348;DHT22;1687;49.540;8.574;2023-10-09T05:45:02;16.60;86.40
3348;DHT22;1687;49.540;8.574;2023-10-09T05:47:44;16.60;86.20
3348;DHT22;1687;49.540;8.574;2023-10-09T05:50:26;16.60;86.30
3348;DHT22;1687;49.540;8.574;2023-10-09T05:52:54;16.60;86.20
3348;DHT22;1687;49.540;8.574;2023-10-09T05:55:27;16.50;86.50
3348;DHT22;1687;49.540;8.574;2023-10-09T05:58:14;16.60;86.70
3348;DHT22;1687;49.540;8.574;2023-10-09T06:00:58;16.60;86.40
3348;DHT22;1687;49.540;8.574;2023-10-09T06:03:42;16.60;87.50
3348;DHT22;1687;49.540;8.574;2023-10-09T06:06:14;16.70;87.40
3348;DHT22;1687;49.540;8.574;2023-10-09T06:09:01;16.70;87.20
3348;DHT22;1687;49.540;8.574;2023-10-09T06:11:53;16.80;87.40
3348;DHT22;1687;49.540;8.574;2023-10-09T06:14:20;16.90;87.50
3348;DHT22;1687;49.540;8.574;2023-10-09T06:16:56;16.90;87.10
3348;DHT22;1687;49.540;8.574;2023-10-09T06:19:23;17.00;87.00
3348;DHT22;1687;49.540;8.574;2023-10-09T06:21:54;17.00;87.40
3348;DHT22;1687;49.540;8.574;2023-10-09T06:24:30;17.10;87.20
3348;DHT22;1687;49.540;8.574;2023-10-09T06:27:07;17.10;87.10
3348;DHT22;1687;49.540;8.574;2023-10-09T06:29:33;17.10;86.40
3348;DHT22;1687;49.540;8.574;2023-10-09T06:32:05;17.10;86.60
3348;DHT22;1687;49.540;8.574;2023-10-09T06:34:51;17.00;86.60
3348;DHT22;1687;49.540;8.574;2023-10-09T06:37:46;17.00;86.50
3348;DHT22;1687;49.540;8.574;2023-10-09T06:40:28;17.00;86.30
3348;DHT22;1687;49.540;8.574;2023-10-09T06:43:04;16.90;86.00
3348;DHT22;1687;49.540;8.574;2023-10-09T06:45:35;16.80;86.70
3348;DHT22;1687;49.540;8.574;2023-10-09T06:48:13;16.90;87.00
3348;DHT22;1687;49.540;8.574;2023-10-09T06:51:03;16.90;87.00
3348;DHT22;1687;49.540;8.574;2023-10-09T06:53:54;16.90;86.90
3348;DHT22;1687;49.540;8.574;2023-10-09T06:58:58;17.00;87.70
3348;DHT22;1687;49.540;8.574;2023-10-09T07:01:29;17.00;86.90
3348;DHT22;1687;49.540;8.574;2023-10-09T07:04:08;17.00;87.30
3348;DHT22;1687;49.540;8.574;2023-10-09T07:06:53;17.10;87.50
3348;DHT22;1687;49.540;8.574;2023-10-09T07:09:22;17.10;87.10
3348;DHT22;1687;49.540;8.574;2023-10-09T07:11:50;17.10;87.40
3348;DHT22;1687;49.540;8.574;2023-10-09T07:17:18;17.30;88.00
3348;DHT22;1687;49.540;8.574;2023-10-09T07:19:59;17.30;87.40
3348;DHT22;1687;49.540;8.574;2023-10-09T07:22:35;17.30;87.40
3348;DHT22;1687;49.540;8.574;2023-10-09T07:25:05;17.40;87.60
3348;DHT22;1687;49.540;8.574;2023-10-09T07:27:54;17.40;87.60
3348;DHT22;1687;49.540;8.574;2023-10-09T07:30:21;17.40;87.40
3348;DHT22;1687;49.540;8.574;2023-10-09T07:33:02;17.50;87.50
3348;DHT22;1687;49.540;8.574;2023-10-09T07:35:46;17.50;87.30
3348;DHT22;1687;49.540;8.574;2023-10-09T07:38:17;17.40;87.00
3348;DHT22;1687;49.540;8.574;2023-10-09T07:40:51;17.50;87.50
3348;DHT22;1687;49.540;8.574;2023-10-09T07:43:34;17.60;87.90
3348;DHT22;1687;49.540;8.574;2023-10-09T07:46:08;17.60;87.80
3348;DHT22;1687;49.540;8.574;2023-10-09T07:48:53;17.70;87.90
3348;DHT22;1687;49.540;8.574;2023-10-09T07:51:21;17.80;87.70
3348;DHT22;1687;49.540;8.574;2023-10-09T07:53:57;17.80;87.30
3348;DHT22;1687;49.540;8.574;2023-10-09T07:56:26;17.80;87.30
3348;DHT22;1687;49.540;8.574;2023-10-09T07:58:56;17.80;87.50
3348;DHT22;1687;49.540;8.574;2023-10-09T08:01:25;17.90;87.60
3348;DHT22;1687;49.540;8.574;2023-10-09T08:04:01;17.90;86.80
3348;DHT22;1687;49.540;8.574;2023-10-09T08:06:30;17.90;86.90
3348;DHT22;1687;49.540;8.574;2023-10-09T08:09:06;17.90;86.60
3348;DHT22;1687;49.540;8.574;2023-10-09T08:11:42;18.00;87.10
3348;DHT22;1687;49.540;8.574;2023-10-09T08:14:29;18.10;87.90
3348;DHT22;1687;49.540;8.574;2023-10-09T08:17:00;18.10;86.80
3348;DHT22;1687;49.540;8.574;2023-10-09T08:19:46;18.20;86.60
3348;DHT22;1687;49.540;8.574;2023-10-09T08:22:29;18.20;86.50
3348;DHT22;1687;49.540;8.574;2023-10-09T08:24:56;18.30;86.50
3348;DHT22;1687;49.540;8.574;2023-10-09T08:27:25;18.40;86.50
3348;DHT22;1687;49.540;8.574;2023-10-09T08:30:05;18.50;86.60
3348;DHT22;1687;49.540;8.574;2023-10-09T08:32:45;18.50;86.20
3348;DHT22;1687;49.540;8.574;2023-10-09T08:35:36;18.60;86.00
3348;DHT22;1687;49.540;8.574;2023-10-09T08:38:15;18.70;85.90
3348;DHT22;1687;49.540;8.574;2023-10-09T08:40:48;18.80;86.00
3348;DHT22;1687;49.540;8.574;2023-10-09T08:43:20;18.80;85.60
3348;DHT22;1687;49.540;8.574;2023-10-09T08:45:48;18.90;85.70
3348;DHT22;1687;49.540;8.574;2023-10-09T08:48:18;19.00;85.00
3348;DHT22;1687;49.540;8.574;2023-10-09T08:50:48;19.10;85.70
3348;DHT22;1687;49.540;8.574;2023-10-09T08:53:20;19.30;85.30
3348;DHT22;1687;49.540;8.574;2023-10-09T08:55:47;19.40;85.50
3348;DHT22;1687;49.540;8.574;2023-10-09T08:58:15;19.50;84.70
3348;DHT22;1687;49.540;8.574;2023-10-09T09:00:47;19.50;84.40
3348;DHT22;1687;49.540;8.574;2023-10-09T09:03:15;19.60;84.40
3348;DHT22;1687;49.540;8.574;2023-10-09T09:05:46;19.60;83.70
3348;DHT22;1687;49.540;8.574;2023-10-09T09:08:24;19.60;83.80
3348;DHT22;1687;49.540;8.574;2023-10-09T09:11:10;19.70;83.60
3348;DHT22;1687;49.540;8.574;2023-10-09T09:13:41;19.80;83.60
3348;DHT22;1687;49.540;8.574;2023-10-09T09:16:39;19.90;83.30
3348;DHT22;1687;49.540;8.574;2023-10-09T09:19:09;19.90;82.40
3348;DHT22;1687;49.540;8.574;2023-10-09T09:21:39;20.00;83.00
3348;DHT22;1687;49.540;8.574;2023-10-09T09:24:08;20.10;82.50
3348;DHT22;1687;49.540;8.574;2023-10-09T09:26:48;20.00;82.00
3348;DHT22;1687;49.540;8.574;2023-10-09T09:32:02;20.10;82.00
3348;DHT22;1687;49.540;8.574;2023-10-09T09:34:59;20.10;81.60
3348;DHT22;1687;49.540;8.574;2023-10-09T09:37:30;20.20;81.70
3348;DHT22;1687;49.540;8.574;2023-10-09T09:40:19;20.20;81.70
3348;DHT22;1687;49.540;8.574;2023-10-09T09:43:06;20.40;81.90
3348;DHT22;1687;49.540;8.574;2023-10-09T09:45:46;20.70;81.70
3348;DHT22;1687;49.540;8.574;2023-10-09T09:48:15;20.90;81.90
3348;DHT22;1687;49.540;8.574;2023-10-09T09:50:43;21.10;81.80
3348;DHT22;1687;49.540;8.574;2023-10-09T09:53:14;21.20;81.30
3348;DHT22;1687;49.540;8.574;2023-10-09T09:58:24;21.20;80.90
3348;DHT22;1687;49.540;8.574;2023-10-09T10:00:53;21.10;80.00
3348;DHT22;1687;49.540;8.574;2023-10-09T10:03:24;20.90;79.90
3348;DHT22;1687;49.540;8.574;2023-10-09T10:05:54;20.90;79.90
3348;DHT22;1687;49.540;8.574;2023-10-09T10:08:22;20.80;79.70
3348;DHT22;1687;49.540;8.574;2023-10-09T10:10:56;20.90;80.00
3348;DHT22;1687;49.540;8.574;2023-10-09T10:21:40;20.90;79.20
3348;DHT22;1687;49.540;8.574;2023-10-09T10:29:43;21.10;79.30
3348;DHT22;1687;49.540;8.574;2023-10-09T10:32:12;21.20;79.10
3348;DHT22;1687;49.540;8.574;2023-10-09T10:37:21;21.30;79.20
3348;DHT22;1687;49.540;8.574;2023-10-09T10:40:04;21.40;79.10
3348;DHT22;1687;49.540;8.574;2023-10-09T10:42:48;21.50;78.70
3348;DHT22;1687;49.540;8.574;2023-10-09T10:45:35;21.60;79.00
3348;DHT22;1687;49.540;8.574;2023-10-09T10:48:08;21.70;79.00
3348;DHT22;1687;49.540;8.574;2023-10-09T10:50:48;21.80;79.10
3348;DHT22;1687;49.540;8.574;2023-10-09T10:53:22;22.10;79.30
3348;DHT22;1687;49.540;8.574;2023-10-09T10:55:57;22.20;78.80
3348;DHT22;1687;49.540;8.574;2023-10-09T10:58:32;22.30;78.50
3348;DHT22;1687;49.540;8.574;2023-10-09T11:01:13;22.50;79.00
3348;DHT22;1687;49.540;8.574;2023-10-09T11:03:39;22.60;78.40
3348;DHT22;1687;49.540;8.574;2023-10-09T11:06:27;22.70;78.20
3348;DHT22;1687;49.540;8.574;2023-10-09T11:09:08;22.80;78.30
3348;DHT22;1687;49.540;8.574;2023-10-09T11:11:36;22.80;77.90
3348;DHT22;1687;49.540;8.574;2023-10-09T11:14:09;22.90;77.50
3348;DHT22;1687;49.540;8.574;2023-10-09T11:16:40;22.80;77.00
3348;DHT22;1687;49.540;8.574;2023-10-09T11:19:22;22.70;76.80
3348;DHT22;1687;49.540;8.574;2023-10-09T11:21:56;22.80;76.90
3348;DHT22;1687;49.540;8.574;2023-10-09T11:24:28;22.80;76.80
3348;DHT22;1687;49.540;8.574;2023-10-09T11:27:03;22.90;76.50
3348;DHT22;1687;49.540;8.574;2023-10-09T11:29:34;22.90;75.90
3348;DHT22;1687;49.540;8.574;2023-10-09T11:32:16;22.90;76.00
3348;DHT22;1687;49.540;8.574;2023-10-09T11:34:47;23.00;76.10
3348;DHT22;1687;49.540;8.574;2023-10-09T11:37:22;23.10;75.50
3348;DHT22;1687;49.540;8.574;2023-10-09T11:39:54;23.20;75.30
3348;DHT22;1687;49.540;8.574;2023-10-09T11:42:22;23.20;74.90
3348;DHT22;1687;49.540;8.574;2023-10-09T11:45:21;23.30;75.00
3348;DHT22;1687;49.540;8.574;2023-10-09T11:48:17;23.30;74.40
3348;DHT22;1687;49.540;8.574;2023-10-09T11:50:52;23.40;74.40
3348;DHT22;1687;49.540;8.574;2023-10-09T11:53:42;23.60;74.30
3348;DHT22;1687;49.540;8.574;2023-10-09T11:56:10;23.80;73.70
3348;DHT22;1687;49.540;8.574;2023-10-09T11:58:40;23.70;73.10
3348;DHT22;1687;49.540;8.574;2023-10-09T12:01:12;23.60;72.90
3348;DHT22;1687;49.540;8.574;2023-10-09T12:03:46;23.70;73.00
3348;DHT22;1687;49.540;8.574;2023-10-09T12:06:16;23.70;72.60
3348;DHT22;1687;49.540;8.574;2023-10-09T12:08:44;23.70;72.40
3348;DHT22;1687;49.540;8.574;2023-10-09T12:11:12;23.80;72.30
3348;DHT22;1687;49.540;8.574;2023-10-09T12:13:39;23.80;72.10
3348;DHT22;1687;49.540;8.574;2023-10-09T12:16:08;24.00;72.20
3348;DHT22;1687;49.540;8.574;2023-10-09T12:18:37;24.10;71.80
3348;DHT22;1687;49.540;8.574;2023-10-09T12:21:05;24.10;71.40
3348;DHT22;1687;49.540;8.574;2023-10-09T12:23:32;24.00;70.90
3348;DHT22;1687;49.540;8.574;2023-10-09T12:26:05;24.00;70.80
3348;DHT22;1687;49.540;8.574;2023-10-09T12:28:42;24.10;70.70
3348;DHT22;1687;49.540;8.574;2023-10-09T12:31:15;24.10;70.20
3348;DHT22;1687;49.540;8.574;2023-10-09T12:33:41;24.10;70.00
3348;DHT22;1687;49.540;8.574;2023-10-09T12:36:14;24.20;69.80
3348;DHT22;1687;49.540;8.574;2023-10-09T12:38:46;24.30;69.60
3348;DHT22;1687;49.540;8.574;2023-10-09T12:41:16;24.40;69.40
3348;DHT22;1687;49.540;8.574;2023-10-09T12:43:52;24.40;69.00
3348;DHT22;1687;49.540;8.574;2023-10-09T12:46:18;24.40;68.80
3348;DHT22;1687;49.540;8.574;2023-10-09T12:48:49;24.60;69.00
3348;DHT22;1687;49.540;8.574;2023-10-09T12:51:15;24.90;68.90
3348;DHT22;1687;49.540;8.574;2023-10-09T12:53:46;25.20;68.70
3348;DHT22;1687;49.540;8.574;2023-10-09T12:56:14;25.40;68.30
3348;DHT22;1687;49.540;8.574;2023-10-09T12:58:43;25.60;67.90
3348;DHT22;1687;49.540;8.574;2023-10-09T13:01:20;25.60;67.40
3348;DHT22;1687;49.540;8.574;2023-10-09T13:03:46;25.70;67.00
3348;DHT22;1687;49.540;8.574;2023-10-09T13:06:15;25.80;66.60
3348;DHT22;1687;49.540;8.574;2023-10-09T13:08:49;25.90;66.30
3348;DHT22;1687;49.540;8.574;2023-10-09T13:11:15;26.00;65.80
3348;DHT22;1687;49.540;8.574;2023-10-09T13:13:44;25.90;65.20
3348;DHT22;1687;49.540;8.574;2023-10-09T13:16:18;26.00;65.20
3348;DHT22;1687;49.540;8.574;2023-10-09T13:18:52;26.20;64.60
3348;DHT22;1687;49.540;8.574;2023-10-09T13:21:20;26.20;64.10
3348;DHT22;1687;49.540;8.574;2023-10-09T13:23:47;26.20;63.70
3348;DHT22;1687;49.540;8.574;2023-10-09T13:26:16;26.20;63.40
3348;DHT22;1687;49.540;8.574;2023-10-09T13:28:50;26.20;62.60
3348;DHT22;1687;49.540;8.574;2023-10-09T13:31:21;26.20;62.70
3348;DHT22;1687;49.540;8.574;2023-10-09T13:33:48;26.10;62.40
3348;DHT22;1687;49.540;8.574;2023-10-09T13:36:14;26.20;62.30
3348;DHT22;1687;49.540;8.574;2023-10-09T13:38:56;26.10;61.80
3348;DHT22;1687;49.540;8.574;2023-10-09T13:41:22;26.20;61.60
3348;DHT22;1687;49.540;8.574;2023-10-09T13:43:54;26.10;61.20
3348;DHT22;1687;49.540;8.574;2023-10-09T13:46:22;26.20;61.10
3348;DHT22;1687;49.540;8.574;2023-10-09T13:48:49;26.20;60.60
3348;DHT22;1687;49.540;8.574;2023-10-09T13:51:15;26.20;60.10
3348;DHT22;1687;49.540;8.574;2023-10-09T13:53:47;26.20;59.90
3348;DHT22;1687;49.540;8.574;2023-10-09T13:56:18;26.30;60.00
3348;DHT22;1687;49.540;8.574;2023-10-09T13:58:45;26.40;59.50
3348;DHT22;1687;49.540;8.574;2023-10-09T14:01:12;26.50;59.50
3348;DHT22;1687;49.540;8.574;2023-10-09T14:03:47;26.50;59.10
3348;DHT22;1687;49.540;8.574;2023-10-09T14:06:16;26.50;58.80
3348;DHT22;1687;49.540;8.574;2023-10-09T14:08:45;26.70;58.80
3348;DHT22;1687;49.540;8.574;2023-10-09T14:11:11;26.80;58.30
3348;DHT22;1687;49.540;8.574;2023-10-09T14:13:41;26.90;57.90
3348;DHT22;1687;49.540;8.574;2023-10-09T14:16:08;26.90;57.70
3348;DHT22;1687;49.540;8.574;2023-10-09T14:18:50;26.90;57.40
3348;DHT22;1687;49.540;8.574;2023-10-09T14:21:19;26.80;57.10
3348;DHT22;1687;49.540;8.574;2023-10-09T14:23:45;26.80;57.20
3348;DHT22;1687;49.540;8.574;2023-10-09T14:26:14;26.80;56.90
3348;DHT22;1687;49.540;8.574;2023-10-09T14:28:40;26.80;56.80
3348;DHT22;1687;49.540;8.574;2023-10-09T14:31:08;26.70;56.50
3348;DHT22;1687;49.540;8.574;2023-10-09T14:33:37;26.70;56.70
3348;DHT22;1687;49.540;8.574;2023-10-09T14:36:04;26.80;56.50
3348;DHT22;1687;49.540;8.574;2023-10-09T14:38:31;26.70;56.30
3348;DHT22;1687;49.540;8.574;2023-10-09T14:40:58;26.80;56.40
3348;DHT22;1687;49.540;8.574;2023-10-09T14:43:25;27.10;56.40
3348;DHT22;1687;49.540;8.574;2023-10-09T14:45:58;27.40;56.30
3348;DHT22;1687;49.540;8.574;2023-10-09T14:48:24;27.70;56.20
3348;DHT22;1687;49.540;8.574;2023-10-09T14:50:54;27.90;55.90
3348;DHT22;1687;49.540;8.574;2023-10-09T14:53:22;28.10;55.60
3348;DHT22;1687;49.540;8.574;2023-10-09T14:55:58;28.40;55.70
3348;DHT22;1687;49.540;8.574;2023-10-09T14:58:27;28.90;55.60
3348;DHT22;1687;49.540;8.574;2023-10-09T15:00:55;29.50;55.60
3348;DHT22;1687;49.540;8.574;2023-10-09T15:03:21;30.10;55.40
3348;DHT22;1687;49.540;8.574;2023-10-09T15:05:47;30.60;55.10
3348;DHT22;1687;49.540;8.574;2023-10-09T15:08:13;30.70;54.40
3348;DHT22;1687;49.540;8.574;2023-10-09T15:10:51;30.80;53.80
3348;DHT22;1687;49.540;8.574;2023-10-09T15:13:21;30.80;53.80
3348;DHT22;1687;49.540;8.574;2023-10-09T15:15:53;30.70;53.10
3348;DHT22;1687;49.540;8.574;2023-10-09T15:18:21;30.40;52.90
3348;DHT22;1687;49.540;8.574;2023-10-09T15:20:48;30.00;52.30
3348;DHT22;1687;49.540;8.574;2023-10-09T15:23:14;29.70;52.50
3348;DHT22;1687;49.540;8.574;2023-10-09T15:25:40;29.20;52.10
3348;DHT22;1687;49.540;8.574;2023-10-09T15:28:10;28.70;52.10
3348;DHT22;1687;49.540;8.574;2023-10-09T15:30:38;28.30;52.30
3348;DHT22;1687;49.540;8.574;2023-10-09T15:33:05;27.90;52.00
3348;DHT22;1687;49.540;8.574;2023-10-09T15:35:31;27.50;52.40
3348;DHT22;1687;49.540;8.574;2023-10-09T15:38:00;27.20;52.20
3348;DHT22;1687;49.540;8.574;2023-10-09T15:40:29;26.90;52.50
3348;DHT22;1687;49.540;8.574;2023-10-09T15:42:59;26.70;52.60
3348;DHT22;1687;49.540;8.574;2023-10-09T15:45:25;26.50;52.70
3348;DHT22;1687;49.540;8.574;2023-10-09T15:47:55;26.30;52.70
3348;DHT22;1687;49.540;8.574;2023-10-09T15:50:21;26.10;52.80
3348;DHT22;1687;49.540;8.574;2023-10-09T15:52:54;26.00;53.00
3348;DHT22;1687;49.540;8.574;2023-10-09T15:55:21;25.90;53.10
3348;DHT22;1687;49.540;8.574;2023-10-09T15:57:50;25.90;53.10
3348;DHT22;1687;49.540;8.574;2023-10-09T16:00:24;25.80;53.20
3348;DHT22;1687;49.540;8.574;2023-10-09T16:02:54;25.70;53.20
3348;DHT22;1687;49.540;8.574;2023-10-09T16:05:20;25.70;53.30
3348;DHT22;1687;49.540;8.574;2023-10-09T16:07:54;25.50;53.20
3348;DHT22;1687;49.540;8.574;2023-10-09T16:10:21;25.40;53.30
3348;DHT22;1687;49.540;8.574;2023-10-09T16:12:47;25.40;53.50
3348;DHT22;1687;49.540;8.574;2023-10-09T16:15:14;25.30;53.50
3348;DHT22;1687;49.540;8.574;2023-10-09T16:17:40;25.30;53.50
3348;DHT22;1687;49.540;8.574;2023-10-09T16:20:10;25.20;53.50
3348;DHT22;1687;49.540;8.574;2023-10-09T16:22:42;25.10;53.60
3348;DHT22;1687;49.540;8.574;2023-10-09T16:25:11;25.00;53.70
3348;DHT22;1687;49.540;8.574;2023-10-09T16:27:39;24.90;53.70
3348;DHT22;1687;49.540;8.574;2023-10-09T16:30:16;24.80;53.70
3348;DHT22;1687;49.540;8.574;2023-10-09T16:32:52;24.70;53.70
3348;DHT22;1687;49.540;8.574;2023-10-09T16:35:18;24.60;53.80
3348;DHT22;1687;49.540;8.574;2023-10-09T16:37:47;24.40;53.80
3348;DHT22;1687;49.540;8.574;2023-10-09T16:40:15;24.30;53.90
3348;DHT22;1687;49.540;8.574;2023-10-09T16:42:42;24.20;54.00
3348;DHT22;1687;49.540;8.574;2023-10-09T16:45:09;24.20;54.10
3348;DHT22;1687;49.540;8.574;2023-10-09T16:47:43;24.10;54.10
3348;DHT22;1687;49.540;8.574;2023-10-09T16:50:09;24.00;54.10
3348;DHT22;1687;49.540;8.574;2023-10-09T16:52:36;23.90;54.10
3348;DHT22;1687;49.540;8.574;2023-10-09T16:55:08;23.80;54.20
3348;DHT22;1687;49.540;8.574;2023-10-09T16:57:39;23.70;54.30
3348;DHT22;1687;49.540;8.574;2023-10-09T17:00:11;23.50;54.30
3348;DHT22;1687;49.540;8.574;2023-10-09T17:02:47;23.50;54.40
3348;DHT22;1687;49.540;8.574;2023-10-09T17:05:14;23.40;54.60
3348;DHT22;1687;49.540;8.574;2023-10-09T17:07:53;23.30;54.70
3348;DHT22;1687;49.540;8.574;2023-10-09T17:10:21;23.30;54.90
3348;DHT22;1687;49.540;8.574;2023-10-09T17:12:51;23.20;54.90